Time;durP1;ratioP1;P1;durP2;ratioP2;P2;SDS_P1;SDS_P2;PMS_P1;PMS_P2;Temp;Humidity;BMP_temperature;BMP_pressure;BME280_temperature;BME280_humidity;BME280_pressure;Samples;Min_cycle;Max_cycle;Signal;HPM_P1;HPM_P2
2022/12/11 00:00:02;;;;;;;7.53;2.23;;;;;;;;;;4432235;32;317529;-85
2022/12/11 00:02:29;;;;;;;4.93;2.23;;;;;;;;;;4423532;32;316474;-86
2022/12/11 00:04:56;;;;;;;7.77;2.63;;;;;;;;;;4433382;32;316493;-86
2022/12/11 00:07:23;;;;;;;12.87;3.03;;;;;;;;;;4422198;32;316743;-85
2022/12/11 00:09:51;;;;;;;7.00;2.80;;;;;;;;;;4433164;32;317558;-85
2022/12/11 00:12:18;;;;;;;8.77;2.60;;;;;;;;;;4432785;32;316482;-86
2022/12/11 00:14:44;;;;;;;10.13;3.43;;;;;;;;;;4423621;32;316803;-86
2022/12/11 00:17:11;;;;;;;17.00;2.23;;;;;;;;;;4433493;32;317674;-86
2022/12/11 00:19:38;;;;;;;7.37;3.27;;;;;;;;;;4423536;32;317784;-86
2022/12/11 00:22:07;;;;;;;6.83;2.70;;;;;;;;;;4431940;32;316500;-86
2022/12/11 00:24:34;;;;;;;7.33;2.13;;;;;;;;;;4423474;32;316601;-86
2022/12/11 00:27:03;;;;;;;3.37;1.93;;;;;;;;;;4433053;32;316494;-86
2022/12/11 00:29:29;;;;;;;3.03;1.70;;;;;;;;;;4423357;32;316475;-86
2022/12/11 00:31:56;;;;;;;3.20;2.13;;;;;;;;;;4433012;32;316599;-86
2022/12/11 00:34:23;;;;;;;6.60;2.00;;;;;;;;;;4414782;32;316638;-86
2022/12/11 00:36:50;;;;;;;8.57;2.90;;;;;;;;;;4432596;32;316513;-86
2022/12/11 00:39:17;;;;;;;5.70;2.30;;;;;;;;;;4431266;32;316884;-86
2022/12/11 00:41:44;;;;;;;6.33;3.57;;;;;;;;;;4422216;32;317193;-86
2022/12/11 00:44:12;;;;;;;9.90;3.20;;;;;;;;;;4432709;32;328661;-86
2022/12/11 00:46:41;;;;;;;5.30;2.93;;;;;;;;;;4421811;32;316675;-86
2022/12/11 00:49:08;;;;;;;3.73;2.03;;;;;;;;;;4433065;32;316513;-86
2022/12/11 00:51:36;;;;;;;6.90;2.07;;;;;;;;;;4421903;32;316790;-86
2022/12/11 00:54:03;;;;;;;12.80;2.67;;;;;;;;;;4431791;32;316415;-86
2022/12/11 00:56:30;;;;;;;12.30;2.73;;;;;;;;;;4415195;32;317713;-86
2022/12/11 00:58:57;;;;;;;4.63;2.13;;;;;;;;;;4431949;32;317699;-86
2022/12/11 01:01:25;;;;;;;9.83;4.53;;;;;;;;;;4423114;32;316573;-86
2022/12/11 01:03:53;;;;;;;8.47;2.60;;;;;;;;;;4432891;32;316714;-86
2022/12/11 01:06:21;;;;;;;6.37;1.90;;;;;;;;;;4431940;32;316504;-86
2022/12/11 01:10:22;;;;;;;4.60;1.80;;;;;;;;;;4419878;32;416776;-86
2022/12/11 01:11:36;;;;;;;5.70;1.50;;;;;;;;;;4421560;32;318083;-86
2022/12/11 01:14:03;;;;;;;4.83;1.60;;;;;;;;;;4431730;32;316409;-86
2022/12/11 01:16:31;;;;;;;6.13;1.13;;;;;;;;;;4421660;32;323222;-86
2022/12/11 01:18:58;;;;;;;3.17;0.93;;;;;;;;;;4432983;32;316531;-86
2022/12/11 01:21:25;;;;;;;3.47;1.50;;;;;;;;;;4421536;32;316669;-86
2022/12/11 01:23:52;;;;;;;1.43;1.00;;;;;;;;;;4432619;32;316627;-86
2022/12/11 01:26:20;;;;;;;2.30;0.87;;;;;;;;;;4419038;32;317056;-86
2022/12/11 01:28:49;;;;;;;5.00;1.10;;;;;;;;;;4418583;32;417835;-86
2022/12/11 01:31:18;;;;;;;1.33;0.97;;;;;;;;;;4432888;32;316482;-86
2022/12/11 01:33:46;;;;;;;1.97;0.90;;;;;;;;;;4420589;32;347577;-86
2022/12/11 01:36:16;;;;;;;3.53;1.33;;;;;;;;;;4431505;32;316634;-86
2022/12/11 01:38:42;;;;;;;5.87;1.97;;;;;;;;;;4422607;32;317028;-86
2022/12/11 01:41:10;;;;;;;5.07;2.90;;;;;;;;;;4432582;32;317352;-86
2022/12/11 01:43:58;;;;;;;2.73;1.60;;;;;;;;;;4421518;32;317019;-86
2022/12/11 01:46:26;;;;;;;8.93;2.00;;;;;;;;;;4424991;32;317024;-86
2022/12/11 01:48:54;;;;;;;3.00;1.37;;;;;;;;;;4435261;32;317277;-85
2022/12/11 01:51:22;;;;;;;3.43;1.67;;;;;;;;;;4435333;32;316549;-86
2022/12/11 01:53:54;;;;;;;3.87;1.10;;;;;;;;;;4408538;32;419329;-86
2022/12/11 01:56:22;;;;;;;1.43;1.13;;;;;;;;;;4422650;32;316909;-85
2022/12/11 01:58:52;;;;;;;1.10;1.00;;;;;;;;;;4393072;32;416084;-85
2022/12/11 02:01:24;;;;;;;4.40;1.70;;;;;;;;;;4418640;32;317086;-85
2022/12/11 02:03:55;;;;;;;2.43;1.30;;;;;;;;;;4413119;32;416325;-85
2022/12/11 02:06:32;;;;;;;2.83;1.13;;;;;;;;;;4416160;32;316958;-85
2022/12/11 02:08:59;;;;;;;4.17;1.67;;;;;;;;;;4423793;32;316441;-85
2022/12/11 02:11:31;;;;;;;1.20;0.87;;;;;;;;;;4410839;32;316847;-85
2022/12/11 02:14:08;;;;;;;3.97;1.50;;;;;;;;;;4424931;32;316865;-85
2022/12/11 02:16:44;;;;;;;3.00;1.70;;;;;;;;;;4409600;32;316624;-85
2022/12/11 02:19:30;;;;;;;3.63;1.70;;;;;;;;;;4419578;32;316579;-84
2022/12/11 02:21:58;;;;;;;1.53;1.00;;;;;;;;;;4406443;32;417158;-85
2022/12/11 02:24:40;;;;;;;2.63;1.27;;;;;;;;;;4409633;32;316611;-85
2022/12/11 02:27:24;;;;;;;1.30;0.70;;;;;;;;;;4405730;32;316656;-85
2022/12/11 02:29:59;;;;;;;2.93;1.50;;;;;;;;;;4393714;32;418314;-85
2022/12/11 02:32:30;;;;;;;3.47;1.57;;;;;;;;;;4408180;32;316616;-85
2022/12/11 02:35:03;;;;;;;4.30;1.37;;;;;;;;;;4419470;32;316384;-85
2022/12/11 02:37:32;;;;;;;9.03;3.07;;;;;;;;;;4408104;32;316401;-85
2022/12/11 02:39:59;;;;;;;2.17;1.20;;;;;;;;;;4419210;32;316618;-85
2022/12/11 02:42:31;;;;;;;4.13;1.10;;;;;;;;;;4408068;32;316460;-85
2022/12/11 02:45:01;;;;;;;6.63;1.60;;;;;;;;;;4410062;32;316401;-85
2022/12/11 02:47:30;;;;;;;6.87;3.23;;;;;;;;;;4407690;32;316576;-85
2022/12/11 02:50:00;;;;;;;8.80;4.23;;;;;;;;;;4418946;32;316519;-85
2022/12/11 02:52:29;;;;;;;3.93;1.73;;;;;;;;;;4407879;32;316481;-85
2022/12/11 02:54:58;;;;;;;5.40;1.73;;;;;;;;;;4417971;32;316541;-85
2022/12/11 02:57:31;;;;;;;2.23;1.27;;;;;;;;;;4408765;32;316570;-85
2022/12/11 03:00:00;;;;;;;6.83;1.03;;;;;;;;;;4419008;32;316632;-85
2022/12/11 03:02:27;;;;;;;0.70;0.70;;;;;;;;;;4415737;32;316393;-85
2022/12/11 03:04:56;;;;;;;1.30;0.80;;;;;;;;;;4424667;32;316644;-85
2022/12/11 03:07:25;;;;;;;2.90;1.00;;;;;;;;;;4413930;32;316900;-85
2022/12/11 03:09:52;;;;;;;1.30;0.80;;;;;;;;;;4418930;32;316848;-84
2022/12/11 03:12:21;;;;;;;1.43;0.97;;;;;;;;;;4424167;32;316400;-85
2022/12/11 03:14:49;;;;;;;1.00;0.80;;;;;;;;;;4404855;32;414596;-85
2022/12/11 03:17:20;;;;;;;2.50;0.90;;;;;;;;;;4417595;32;316627;-85
2022/12/11 03:19:53;;;;;;;2.03;0.80;;;;;;;;;;4405535;32;416477;-84
2022/12/11 03:22:26;;;;;;;3.03;0.80;;;;;;;;;;4417408;32;316499;-85
2022/12/11 03:24:59;;;;;;;2.70;0.90;;;;;;;;;;4411955;32;416476;-85
2022/12/11 03:27:33;;;;;;;2.63;0.80;;;;;;;;;;4413621;32;316448;-85
2022/12/11 03:30:04;;;;;;;0.77;0.70;;;;;;;;;;4422679;32;316680;-85
2022/12/11 03:32:38;;;;;;;0.63;0.63;;;;;;;;;;4410240;32;316597;-85
2022/12/11 03:35:08;;;;;;;2.03;1.10;;;;;;;;;;4424985;32;316581;-85
2022/12/11 03:37:38;;;;;;;2.57;0.63;;;;;;;;;;4408587;32;316622;-85
2022/12/11 03:40:10;;;;;;;4.30;0.90;;;;;;;;;;4422895;32;316525;-85
2022/12/11 03:42:39;;;;;;;1.17;0.90;;;;;;;;;;4414683;32;316623;-85
2022/12/11 03:45:08;;;;;;;4.37;1.10;;;;;;;;;;4418304;32;316452;-85
2022/12/11 03:47:39;;;;;;;3.00;1.30;;;;;;;;;;4413412;32;316702;-85
2022/12/11 03:50:09;;;;;;;1.80;1.20;;;;;;;;;;4422822;32;316574;-85
2022/12/11 03:52:37;;;;;;;2.10;1.00;;;;;;;;;;4408187;32;316551;-86
2022/12/11 03:55:06;;;;;;;2.37;1.10;;;;;;;;;;4423360;32;316463;-85
2022/12/11 03:57:36;;;;;;;4.00;1.40;;;;;;;;;;4408138;32;317015;-85
2022/12/11 04:00:04;;;;;;;2.50;1.60;;;;;;;;;;4421640;32;316695;-85
2022/12/11 04:02:31;;;;;;;2.67;1.40;;;;;;;;;;4414202;32;316545;-85
2022/12/11 04:05:00;;;;;;;3.47;2.20;;;;;;;;;;4418118;32;316443;-85
2022/12/11 04:07:27;;;;;;;4.87;2.00;;;;;;;;;;4413971;32;316579;-85
2022/12/11 04:09:54;;;;;;;3.80;2.40;;;;;;;;;;4420281;32;316636;-85
2022/12/11 04:12:21;;;;;;;5.33;2.73;;;;;;;;;;4420476;32;317212;-85
2022/12/11 04:15:02;;;;;;;4.97;2.50;;;;;;;;;;4406822;32;416541;-85
2022/12/11 04:25:47;;;;;;;4.83;3.53;;;;;;;;;;4396938;32;387940;-85
2022/12/11 04:28:14;;;;;;;4.60;3.10;;;;;;;;;;4415710;32;316476;-85
2022/12/11 04:30:40;;;;;;;8.30;3.63;;;;;;;;;;4408017;32;316606;-85
2022/12/11 04:33:07;;;;;;;7.73;4.30;;;;;;;;;;4417312;32;317052;-85
2022/12/11 04:35:36;;;;;;;10.30;4.23;;;;;;;;;;4406833;32;316469;-85
2022/12/11 04:38:03;;;;;;;6.53;3.73;;;;;;;;;;4416700;32;349334;-85
2022/12/11 04:40:30;;;;;;;6.00;3.77;;;;;;;;;;4407881;32;316663;-85
2022/12/11 04:42:57;;;;;;;3.97;3.03;;;;;;;;;;4417646;32;316392;-85
2022/12/11 04:45:23;;;;;;;7.33;3.37;;;;;;;;;;4407949;32;316562;-85
2022/12/11 04:47:50;;;;;;;10.13;3.80;;;;;;;;;;4417642;32;316358;-85
2022/12/11 04:50:17;;;;;;;5.77;3.17;;;;;;;;;;4416524;32;317591;-85
2022/12/11 04:52:46;;;;;;;9.40;3.50;;;;;;;;;;4406419;32;316487;-85
2022/12/11 04:55:13;;;;;;;6.73;4.37;;;;;;;;;;4417726;32;316671;-85
2022/12/11 04:57:40;;;;;;;13.47;4.73;;;;;;;;;;4400028;32;317513;-85
2022/12/11 05:00:10;;;;;;;8.83;5.13;;;;;;;;;;4423833;32;317598;-86
2022/12/11 05:02:37;;;;;;;15.27;6.30;;;;;;;;;;4408933;32;316699;-85
2022/12/11 05:05:05;;;;;;;13.73;4.93;;;;;;;;;;4422205;32;317700;-85
2022/12/11 05:07:32;;;;;;;9.37;5.37;;;;;;;;;;4412504;32;317479;-85
2022/12/11 05:10:01;;;;;;;9.13;5.87;;;;;;;;;;4416300;32;316513;-85
2022/12/11 05:12:28;;;;;;;7.87;5.90;;;;;;;;;;4413826;32;317122;-85
2022/12/11 05:14:55;;;;;;;11.90;7.73;;;;;;;;;;4418589;32;355132;-84
2022/12/11 05:17:22;;;;;;;18.90;8.53;;;;;;;;;;4418242;32;317535;-84
2022/12/11 05:19:51;;;;;;;9.73;4.20;;;;;;;;;;4423238;32;317633;-84
2022/12/11 05:22:18;;;;;;;9.17;6.10;;;;;;;;;;4423965;32;316589;-86
2022/12/11 05:24:46;;;;;;;13.20;6.63;;;;;;;;;;4413199;32;316501;-84
2022/12/11 05:27:14;;;;;;;13.13;5.60;;;;;;;;;;4423684;32;317656;-84
2022/12/11 05:29:41;;;;;;;13.00;7.23;;;;;;;;;;4416725;32;317740;-84
2022/12/11 05:32:07;;;;;;;10.67;6.77;;;;;;;;;;4420102;32;317529;-86
2022/12/11 05:34:34;;;;;;;14.63;7.80;;;;;;;;;;4416422;32;317891;-85
2022/12/11 05:37:02;;;;;;;17.20;9.10;;;;;;;;;;4422976;32;317697;-85
2022/12/11 05:39:29;;;;;;;28.90;17.40;;;;;;;;;;4412066;32;317542;-85
2022/12/11 05:41:55;;;;;;;35.77;18.60;;;;;;;;;;4426198;32;318803;-85
2022/12/11 05:44:24;;;;;;;25.03;15.70;;;;;;;;;;4409845;32;319188;-84
2022/12/11 05:46:51;;;;;;;24.60;15.87;;;;;;;;;;4424685;32;319222;-84
2022/12/11 05:49:18;;;;;;;21.47;14.93;;;;;;;;;;4425828;32;318514;-84
2022/12/11 05:51:47;;;;;;;22.90;13.70;;;;;;;;;;4408946;32;357631;-86
2022/12/11 05:54:14;;;;;;;17.80;11.10;;;;;;;;;;4424946;32;319171;-84
2022/12/11 05:56:41;;;;;;;17.93;12.57;;;;;;;;;;4411620;32;318487;-84
2022/12/11 05:59:08;;;;;;;26.03;13.53;;;;;;;;;;4422785;32;318528;-84
2022/12/11 06:01:38;;;;;;;25.40;14.37;;;;;;;;;;4415948;32;319247;-86
2022/12/11 06:04:07;;;;;;;25.23;16.33;;;;;;;;;;4418581;32;318610;-85
2022/12/11 06:06:34;;;;;;;32.50;26.17;;;;;;;;;;4401557;32;318818;-84
2022/12/11 06:09:02;;;;;;;27.03;20.07;;;;;;;;;;4423871;32;319209;-83
2022/12/11 06:11:30;;;;;;;40.83;27.43;;;;;;;;;;4413726;32;318512;-84
2022/12/11 06:13:57;;;;;;;36.93;22.67;;;;;;;;;;4427422;32;318765;-84
2022/12/11 06:16:24;;;;;;;38.93;20.73;;;;;;;;;;4412179;32;318816;-85
2022/12/11 06:18:53;;;;;;;29.37;20.53;;;;;;;;;;4437898;32;318559;-84
2022/12/11 06:21:22;;;;;;;33.77;20.20;;;;;;;;;;4428722;32;354611;-84
2022/12/11 06:23:53;;;;;;;32.40;18.07;;;;;;;;;;4406586;32;418108;-84
2022/12/11 06:26:21;;;;;;;17.40;11.77;;;;;;;;;;4419473;32;318713;-86
2022/12/11 06:28:48;;;;;;;13.87;7.53;;;;;;;;;;4415195;32;418645;-85
2022/12/11 06:31:16;;;;;;;12.80;6.90;;;;;;;;;;4422253;32;317729;-84
2022/12/11 06:33:43;;;;;;;14.87;6.10;;;;;;;;;;4415496;32;317482;-84
2022/12/11 06:36:14;;;;;;;15.93;7.70;;;;;;;;;;4419431;32;317526;-84
2022/12/11 06:38:41;;;;;;;15.77;9.77;;;;;;;;;;4415687;32;318266;-84
2022/12/11 06:41:08;;;;;;;18.87;10.87;;;;;;;;;;4424000;32;317631;-84
2022/12/11 06:43:38;;;;;;;16.73;10.33;;;;;;;;;;4409069;32;318810;-84
2022/12/11 06:46:05;;;;;;;20.77;11.70;;;;;;;;;;4425058;32;319327;-84
2022/12/11 06:48:32;;;;;;;16.27;9.67;;;;;;;;;;4408962;32;318646;-84
2022/12/11 06:50:59;;;;;;;15.63;7.47;;;;;;;;;;4422118;32;317714;-84
2022/12/11 06:53:28;;;;;;;16.23;7.70;;;;;;;;;;4415416;32;317498;-85
2022/12/11 06:55:55;;;;;;;35.77;22.53;;;;;;;;;;4419153;32;317398;-85
2022/12/11 06:58:22;;;;;;;13.50;8.07;;;;;;;;;;4425227;32;318883;-85
2022/12/11 07:00:49;;;;;;;20.23;10.47;;;;;;;;;;4406023;32;417676;-85
2022/12/11 07:03:16;;;;;;;22.73;16.40;;;;;;;;;;4418910;32;318502;-85
2022/12/11 07:05:42;;;;;;;20.53;14.37;;;;;;;;;;4401552;32;318560;-86
2022/12/11 07:08:10;;;;;;;14.03;8.63;;;;;;;;;;4424985;32;318534;-85
2022/12/11 07:10:38;;;;;;;31.70;14.53;;;;;;;;;;4410098;32;317394;-84
2022/12/11 07:13:05;;;;;;;33.60;18.77;;;;;;;;;;4422697;32;319564;-85
2022/12/11 07:15:32;;;;;;;43.60;24.70;;;;;;;;;;4414698;32;318451;-85
2022/12/11 07:17:58;;;;;;;44.40;27.20;;;;;;;;;;4418249;32;319082;-85
2022/12/11 07:20:25;;;;;;;41.67;25.37;;;;;;;;;;4413288;32;319265;-85
2022/12/11 07:22:54;;;;;;;49.13;27.40;;;;;;;;;;4420383;32;318847;-84
2022/12/11 07:25:20;;;;;;;31.80;21.37;;;;;;;;;;4421533;32;318701;-85
2022/12/11 07:27:49;;;;;;;41.00;21.97;;;;;;;;;;4389608;32;418598;-85
2022/12/11 07:30:16;;;;;;;118.33;98.20;;;;;;;;;;4424694;32;318596;-85
2022/12/11 07:32:43;;;;;;;51.20;33.57;;;;;;;;;;4410522;32;319702;-84
2022/12/11 07:35:10;;;;;;;29.07;18.47;;;;;;;;;;4423081;32;318559;-85
2022/12/11 07:37:39;;;;;;;32.40;22.00;;;;;;;;;;4415788;32;318795;-85
2022/12/11 07:40:07;;;;;;;36.87;23.97;;;;;;;;;;4417786;32;318519;-84
2022/12/11 07:42:34;;;;;;;32.07;17.13;;;;;;;;;;4413471;32;318861;-84
2022/12/11 07:45:02;;;;;;;28.10;19.40;;;;;;;;;;4421239;32;318674;-84
2022/12/11 07:47:29;;;;;;;24.40;17.60;;;;;;;;;;4409599;32;318728;-84
2022/12/11 07:49:56;;;;;;;35.53;20.17;;;;;;;;;;4419070;32;357838;-84
2022/12/11 07:52:23;;;;;;;23.80;16.33;;;;;;;;;;4416312;32;318795;-84
2022/12/11 07:54:49;;;;;;;19.67;13.97;;;;;;;;;;4420816;32;318951;-85
2022/12/11 07:57:16;;;;;;;33.03;19.93;;;;;;;;;;4421173;32;318537;-85
2022/12/11 07:59:43;;;;;;;26.33;17.83;;;;;;;;;;4413426;32;323659;-85
2022/12/11 08:02:11;;;;;;;16.43;9.93;;;;;;;;;;4418028;32;320202;-85
2022/12/11 08:04:39;;;;;;;17.40;4.80;;;;;;;;;;4413639;32;317663;-84
2022/12/11 08:07:06;;;;;;;8.80;5.57;;;;;;;;;;4422435;32;317781;-84
2022/12/11 08:09:33;;;;;;;14.13;5.77;;;;;;;;;;4410060;32;316510;-84
2022/12/11 08:12:00;;;;;;;20.47;10.73;;;;;;;;;;4424670;32;317551;-84
2022/12/11 08:14:27;;;;;;;12.43;7.27;;;;;;;;;;4407717;32;318821;-85
2022/12/11 08:16:54;;;;;;;10.20;6.13;;;;;;;;;;4423708;32;318466;-84
2022/12/11 08:19:23;;;;;;;10.33;5.30;;;;;;;;;;4424154;32;317481;-85
2022/12/11 08:21:49;;;;;;;13.53;4.53;;;;;;;;;;4404866;32;417293;-85
2022/12/11 08:24:19;;;;;;;13.93;3.40;;;;;;;;;;4416656;32;317720;-86
2022/12/11 08:26:46;;;;;;;10.40;6.47;;;;;;;;;;4408003;32;317692;-85
2022/12/11 08:29:14;;;;;;;10.17;7.03;;;;;;;;;;4416786;32;317530;-85
2022/12/11 08:31:42;;;;;;;7.60;5.23;;;;;;;;;;4407695;32;328587;-85
2022/12/11 08:34:12;;;;;;;9.43;4.07;;;;;;;;;;4417821;32;316466;-85
2022/12/11 08:36:40;;;;;;;10.83;5.00;;;;;;;;;;4410489;32;333026;-85
2022/12/11 08:39:07;;;;;;;7.37;5.10;;;;;;;;;;4416896;32;317685;-85
2022/12/11 08:41:35;;;;;;;5.40;3.47;;;;;;;;;;4400354;32;316551;-85
2022/12/11 08:44:02;;;;;;;8.93;4.67;;;;;;;;;;4426879;32;316695;-85
2022/12/11 08:46:30;;;;;;;12.40;5.87;;;;;;;;;;4408077;32;317189;-85
2022/12/11 08:48:58;;;;;;;6.90;4.13;;;;;;;;;;4416610;32;317686;-85
2022/12/11 08:51:27;;;;;;;7.83;3.83;;;;;;;;;;4407887;32;316575;-85
2022/12/11 08:53:57;;;;;;;11.00;6.00;;;;;;;;;;4418357;32;316956;-85
2022/12/11 08:56:24;;;;;;;10.80;5.67;;;;;;;;;;4410988;32;317509;-85
2022/12/11 08:58:51;;;;;;;16.73;5.03;;;;;;;;;;4420501;32;317788;-85
2022/12/11 09:01:21;;;;;;;8.27;3.40;;;;;;;;;;4419863;32;317641;-86
2022/12/11 09:03:48;;;;;;;12.10;4.17;;;;;;;;;;4416834;32;416413;-85
2022/12/11 09:06:17;;;;;;;5.60;3.00;;;;;;;;;;4424026;32;317738;-85
2022/12/11 09:08:46;;;;;;;12.57;6.77;;;;;;;;;;4413507;32;326012;-85
2022/12/11 09:11:16;;;;;;;8.03;4.13;;;;;;;;;;4420485;32;317802;-85
2022/12/11 09:13:43;;;;;;;10.37;5.30;;;;;;;;;;4416879;32;317173;-85
2022/12/11 09:16:14;;;;;;;8.20;4.37;;;;;;;;;;4420538;32;317551;-85
2022/12/11 09:18:41;;;;;;;4.50;2.40;;;;;;;;;;4403477;32;316847;-85
2022/12/11 09:21:10;;;;;;;3.10;2.27;;;;;;;;;;4424948;32;317111;-85
2022/12/11 09:23:37;;;;;;;3.27;2.20;;;;;;;;;;4411624;32;316499;-86
2022/12/11 09:26:05;;;;;;;6.90;2.50;;;;;;;;;;4425404;32;316514;-85
2022/12/11 09:28:34;;;;;;;5.23;2.20;;;;;;;;;;4411620;32;316695;-85
2022/12/11 09:31:01;;;;;;;8.70;4.00;;;;;;;;;;4425452;32;316696;-85
2022/12/11 09:33:27;;;;;;;10.33;4.67;;;;;;;;;;4415374;32;317288;-85
2022/12/11 09:35:58;;;;;;;8.53;5.03;;;;;;;;;;4419019;32;317715;-85
2022/12/11 09:38:25;;;;;;;10.13;5.10;;;;;;;;;;4416344;32;316506;-85
2022/12/11 09:40:52;;;;;;;10.03;5.43;;;;;;;;;;4423056;32;318256;-86
2022/12/11 09:43:31;;;;;;;8.20;4.63;;;;;;;;;;4422881;32;317532;-85
2022/12/11 09:46:02;;;;;;;6.20;4.20;;;;;;;;;;4406242;32;414916;-85
2022/12/11 09:48:32;;;;;;;5.20;2.80;;;;;;;;;;4409090;32;316853;-85
2022/12/11 09:51:05;;;;;;;7.40;3.53;;;;;;;;;;4418835;32;316488;-85
2022/12/11 09:53:36;;;;;;;7.33;4.30;;;;;;;;;;4408845;32;316647;-85
2022/12/11 09:56:12;;;;;;;6.17;3.87;;;;;;;;;;4411094;32;316691;-85
2022/12/11 09:58:47;;;;;;;4.80;3.07;;;;;;;;;;4409912;32;316483;-85
2022/12/11 10:01:26;;;;;;;5.87;2.73;;;;;;;;;;4425436;32;316839;-85
2022/12/11 10:04:13;;;;;;;8.23;3.50;;;;;;;;;;4409517;32;416430;-85
2022/12/11 10:06:47;;;;;;;5.03;3.10;;;;;;;;;;4408709;32;317132;-85
2022/12/11 10:09:20;;;;;;;9.47;4.30;;;;;;;;;;4426148;32;316541;-85
2022/12/11 10:11:59;;;;;;;6.67;4.03;;;;;;;;;;4412173;32;317440;-85
2022/12/11 10:14:35;;;;;;;11.77;6.23;;;;;;;;;;4403857;32;316498;-91
2022/12/11 10:17:09;;;;;;;15.57;7.67;;;;;;;;;;4414041;32;318305;-85
2022/12/11 10:19:37;;;;;;;7.53;5.27;;;;;;;;;;4409480;32;317659;-86
2022/12/11 10:22:05;;;;;;;8.57;5.57;;;;;;;;;;4410608;32;316675;-86
2022/12/11 10:24:39;;;;;;;4.97;3.83;;;;;;;;;;4409413;32;316809;-85
2022/12/11 10:27:18;;;;;;;11.20;5.20;;;;;;;;;;4423821;32;316688;-85
2022/12/11 10:29:45;;;;;;;8.80;4.53;;;;;;;;;;4414678;32;317668;-85
2022/12/11 10:32:22;;;;;;;7.70;5.77;;;;;;;;;;4419118;32;316741;-85
2022/12/11 10:34:59;;;;;;;12.40;8.07;;;;;;;;;;4406737;32;416058;-85
2022/12/11 10:37:25;;;;;;;15.23;7.67;;;;;;;;;;4408451;32;318099;-85
2022/12/11 10:39:52;;;;;;;25.23;18.60;;;;;;;;;;4418030;32;317586;-86
2022/12/11 10:42:22;;;;;;;10.10;4.70;;;;;;;;;;4418934;32;318823;-86
2022/12/11 10:44:57;;;;;;;9.07;6.07;;;;;;;;;;4405752;32;417272;-86
2022/12/11 10:47:26;;;;;;;7.77;3.73;;;;;;;;;;4408004;32;317350;-86
2022/12/11 10:49:57;;;;;;;9.30;5.07;;;;;;;;;;4419142;32;316536;-86
2022/12/11 10:52:25;;;;;;;7.27;4.10;;;;;;;;;;4407944;32;316568;-86
2022/12/11 10:54:59;;;;;;;7.83;4.77;;;;;;;;;;4417898;32;316802;-87
2022/12/11 10:57:32;;;;;;;5.90;2.83;;;;;;;;;;4393182;32;316567;-85
2022/12/11 11:00:00;;;;;;;5.00;3.17;;;;;;;;;;4418975;32;316538;-85
2022/12/11 11:02:31;;;;;;;13.83;5.97;;;;;;;;;;4413330;32;381226;-85
2022/12/11 11:05:01;;;;;;;12.33;4.20;;;;;;;;;;4421622;32;317790;-85
2022/12/11 11:07:29;;;;;;;10.83;5.10;;;;;;;;;;4409705;32;317773;-85
2022/12/11 11:10:16;;;;;;;10.03;5.67;;;;;;;;;;4406743;32;324509;-85
2022/12/11 11:12:44;;;;;;;17.67;6.77;;;;;;;;;;4415206;32;317738;-85
2022/12/11 11:15:14;;;;;;;11.60;5.33;;;;;;;;;;4422949;32;342492;-85
2022/12/11 11:17:46;;;;;;;8.33;4.37;;;;;;;;;;4408073;32;318688;-85
2022/12/11 11:20:17;;;;;;;13.43;5.10;;;;;;;;;;4424952;32;317535;-85
2022/12/11 11:22:47;;;;;;;126.10;52.10;;;;;;;;;;4409626;32;357121;-85
2022/12/11 11:25:20;;;;;;;43.10;19.43;;;;;;;;;;4420024;32;319478;-85
2022/12/11 11:27:52;;;;;;;22.60;12.30;;;;;;;;;;4405165;32;318684;-85
2022/12/11 11:30:22;;;;;;;157.00;62.07;;;;;;;;;;4418181;32;318471;-85
2022/12/11 11:32:53;;;;;;;91.63;42.20;;;;;;;;;;4408052;32;421514;-85
2022/12/11 11:35:23;;;;;;;28.00;13.20;;;;;;;;;;4419971;32;326044;-85
2022/12/11 11:38:17;;;;;;;12.93;5.97;;;;;;;;;;4390821;32;418150;-85
2022/12/11 11:40:49;;;;;;;9.37;5.53;;;;;;;;;;4408605;32;317363;-86
2022/12/11 11:43:21;;;;;;;10.27;7.07;;;;;;;;;;4421941;32;316185;-86
2022/12/11 11:45:57;;;;;;;17.60;6.33;;;;;;;;;;4420831;32;419527;-86
2022/12/11 11:48:40;;;;;;;12.03;6.83;;;;;;;;;;4408541;32;318176;-86
2022/12/11 11:51:14;;;;;;;30.67;17.50;;;;;;;;;;4433445;32;317690;-86
2022/12/11 11:53:46;;;;;;;60.50;37.83;;;;;;;;;;4412499;32;357376;-86
2022/12/11 11:56:20;;;;;;;28.57;20.77;;;;;;;;;;4431064;32;324164;-86
2022/12/11 11:58:55;;;;;;;35.53;16.53;;;;;;;;;;4422336;32;319462;-86
2022/12/11 12:01:22;;;;;;;22.53;14.17;;;;;;;;;;4418400;32;318417;-86
2022/12/11 12:03:51;;;;;;;22.93;14.50;;;;;;;;;;4420564;32;418285;-86
2022/12/11 12:06:28;;;;;;;24.33;17.00;;;;;;;;;;4419281;32;318405;-86
2022/12/11 12:09:02;;;;;;;12.27;9.20;;;;;;;;;;4417193;32;416935;-86
2022/12/11 12:11:36;;;;;;;13.07;8.13;;;;;;;;;;4414270;32;317676;-86
2022/12/11 12:14:13;;;;;;;9.90;6.43;;;;;;;;;;4419582;32;317567;-86
2022/12/11 12:16:46;;;;;;;127.27;59.90;;;;;;;;;;4422750;32;329044;-86
2022/12/11 12:19:30;;;;;;;52.43;25.10;;;;;;;;;;4432151;32;320332;-86
2022/12/11 12:22:05;;;;;;;21.07;13.33;;;;;;;;;;4420188;32;419297;-86
2022/12/11 12:24:42;;;;;;;19.27;9.50;;;;;;;;;;4414079;32;318625;-86
2022/12/11 12:27:18;;;;;;;18.50;10.07;;;;;;;;;;4431909;32;355753;-85
2022/12/11 12:29:54;;;;;;;25.07;13.50;;;;;;;;;;4421814;32;318437;-86
2022/12/11 12:32:26;;;;;;;63.10;37.27;;;;;;;;;;4433164;32;318598;-85
2022/12/11 12:35:08;;;;;;;125.80;70.17;;;;;;;;;;4420144;32;419509;-86
2022/12/11 12:37:47;;;;;;;33.90;20.10;;;;;;;;;;4409761;32;319647;-86
2022/12/11 12:40:20;;;;;;;33.87;22.27;;;;;;;;;;4432896;32;319369;-85
2022/12/11 12:42:55;;;;;;;29.43;19.50;;;;;;;;;;4423760;32;318571;-86
2022/12/11 12:45:27;;;;;;;21.10;15.67;;;;;;;;;;4418119;32;318616;-85
2022/12/11 12:47:54;;;;;;;20.60;15.93;;;;;;;;;;4406055;32;419492;-86
2022/12/11 12:50:25;;;;;;;35.63;17.37;;;;;;;;;;4419349;32;318519;-86
2022/12/11 12:52:52;;;;;;;30.70;18.83;;;;;;;;;;4404815;32;418523;-86
2022/12/11 12:55:23;;;;;;;22.33;13.50;;;;;;;;;;4420226;32;319468;-86
2022/12/11 12:57:53;;;;;;;23.10;12.37;;;;;;;;;;4404710;32;418463;-85
2022/12/11 13:00:28;;;;;;;18.47;12.10;;;;;;;;;;4417430;32;318471;-85
2022/12/11 13:02:56;;;;;;;17.70;11.20;;;;;;;;;;4404664;32;420586;-85
2022/12/11 13:05:27;;;;;;;15.80;10.13;;;;;;;;;;4396046;32;318637;-86
2022/12/11 13:07:56;;;;;;;24.00;12.47;;;;;;;;;;4416277;32;318716;-85
2022/12/11 13:10:26;;;;;;;13.80;9.60;;;;;;;;;;4405176;32;318707;-85
2022/12/11 13:12:54;;;;;;;15.83;9.07;;;;;;;;;;4423121;32;317458;-86
2022/12/11 13:15:28;;;;;;;15.93;9.63;;;;;;;;;;4422700;32;317552;-85
2022/12/11 13:17:55;;;;;;;22.37;12.67;;;;;;;;;;4406800;32;417761;-86
2022/12/11 13:20:26;;;;;;;18.37;10.20;;;;;;;;;;4419765;32;319121;-85
2022/12/11 13:23:10;;;;;;;14.57;8.60;;;;;;;;;;4404694;32;418327;-85
2022/12/11 13:25:49;;;;;;;15.13;8.07;;;;;;;;;;4406350;32;318131;-87
2022/12/11 13:28:46;;;;;;;14.93;8.90;;;;;;;;;;4417563;32;317733;-84
2022/12/11 13:31:32;;;;;;;22.60;8.93;;;;;;;;;;4401776;32;418639;-85
2022/12/11 13:34:08;;;;;;;22.13;13.50;;;;;;;;;;4409383;32;418210;-85
2022/12/11 13:36:40;;;;;;;25.43;15.13;;;;;;;;;;4406593;32;342049;-85
2022/12/11 13:39:16;;;;;;;15.43;8.90;;;;;;;;;;4415295;32;318590;-85
2022/12/11 13:41:46;;;;;;;15.67;7.97;;;;;;;;;;4407587;32;317462;-84
2022/12/11 13:44:20;;;;;;;12.90;6.60;;;;;;;;;;4420127;32;317686;-84
2022/12/11 13:46:48;;;;;;;16.10;8.37;;;;;;;;;;4408919;32;318328;-84
2022/12/11 13:49:22;;;;;;;19.83;8.37;;;;;;;;;;4417409;32;317722;-84
2022/12/11 13:51:56;;;;;;;10.83;7.43;;;;;;;;;;4415772;32;317419;-84
2022/12/11 13:54:23;;;;;;;19.70;10.50;;;;;;;;;;4418943;32;317483;-86
2022/12/11 13:57:19;;;;;;;17.90;11.47;;;;;;;;;;4414466;32;417137;-85
2022/12/11 13:59:49;;;;;;;9.93;7.47;;;;;;;;;;4414282;32;318357;-86
2022/12/11 14:02:25;;;;;;;15.37;9.43;;;;;;;;;;4418067;32;316650;-86
2022/12/11 14:04:56;;;;;;;32.63;14.90;;;;;;;;;;4409946;32;421659;-86
2022/12/11 14:07:28;;;;;;;30.53;13.23;;;;;;;;;;4420722;32;318707;-84
2022/12/11 14:10:01;;;;;;;102.43;43.63;;;;;;;;;;4425869;32;318677;-84
2022/12/11 14:12:29;;;;;;;39.00;20.83;;;;;;;;;;4407852;32;319483;-84
2022/12/11 14:14:58;;;;;;;41.33;23.73;;;;;;;;;;4423347;32;334808;-87
2022/12/11 14:17:26;;;;;;;51.87;33.47;;;;;;;;;;4413245;32;347001;-86
2022/12/11 14:19:54;;;;;;;37.07;21.67;;;;;;;;;;4419100;32;318234;-87
2022/12/11 14:22:24;;;;;;;29.53;15.87;;;;;;;;;;4425356;32;318971;-86
2022/12/11 14:24:54;;;;;;;16.97;9.83;;;;;;;;;;4405673;32;419137;-86
2022/12/11 14:27:22;;;;;;;24.50;15.93;;;;;;;;;;4418476;32;317710;-87
2022/12/11 14:29:52;;;;;;;37.00;22.97;;;;;;;;;;4405056;32;418075;-86
2022/12/11 14:32:30;;;;;;;51.37;30.50;;;;;;;;;;4418962;32;318689;-86
2022/12/11 14:34:58;;;;;;;54.27;33.13;;;;;;;;;;4412966;32;418092;-85
2022/12/11 14:37:27;;;;;;;48.57;27.57;;;;;;;;;;4414274;32;319211;-87
2022/12/11 14:40:02;;;;;;;56.10;30.63;;;;;;;;;;4424033;32;318645;-86
2022/12/11 14:42:32;;;;;;;49.20;33.50;;;;;;;;;;4410904;32;318451;-85